Time;durP1;ratioP1;P1;durP2;ratioP2;P2;SDS_P1;SDS_P2;PMS_P1;PMS_P2;Temp;Humidity;BMP_temperature;BMP_pressure;BME280_temperature;BME280_humidity;BME280_pressure;Samples;Min_cycle;Max_cycle;Signal;HPM_P1;HPM_P2
2021/01/12 00:00:21;;;;;;;41.33;23.27;;;-2.70;99.90;;;;;;5035296;28;20446;-50
2021/01/12 00:02:47;;;;;;;44.37;24.23;;;-2.70;99.90;;;;;;5032761;28;20524;-45
2021/01/12 00:05:13;;;;;;;45.47;24.83;;;-2.70;99.90;;;;;;5036582;28;20414;-46
2021/01/12 00:07:38;;;;;;;46.20;25.23;;;-2.60;99.90;;;;;;5034436;28;20952;-45
2021/01/12 00:10:06;;;;;;;45.67;25.77;;;-2.60;99.90;;;;;;5036641;28;20632;-48
2021/01/12 00:12:33;;;;;;;47.93;25.47;;;-2.60;99.90;;;;;;5034577;28;20222;-49
2021/01/12 00:14:59;;;;;;;49.63;27.27;;;-2.70;99.90;;;;;;5034984;28;20434;-48
2021/01/12 00:17:24;;;;;;;48.37;25.90;;;-2.70;99.90;;;;;;5036246;28;20417;-46
2021/01/12 00:19:50;;;;;;;47.07;25.33;;;-2.70;99.90;;;;;;5037603;28;20245;-49
2021/01/12 00:22:17;;;;;;;44.97;24.80;;;-2.70;99.90;;;;;;5039308;28;20230;-49
2021/01/12 00:24:44;;;;;;;48.93;26.17;;;-2.70;99.90;;;;;;5036288;28;20199;-51
2021/01/12 00:27:14;;;;;;;50.20;27.00;;;-2.90;99.90;;;;;;5016885;28;20450;-47
2021/01/12 00:29:41;;;;;;;47.10;26.97;;;-3.00;99.90;;;;;;5038370;28;20434;-50
2021/01/12 00:32:06;;;;;;;48.53;26.30;;;-3.00;99.90;;;;;;5033894;28;20418;-47
2021/01/12 00:34:35;;;;;;;47.07;25.30;;;-3.00;99.90;;;;;;5033528;28;20419;-46
2021/01/12 00:37:01;;;;;;;49.77;27.33;;;-3.10;99.90;;;;;;5034957;28;20256;-45
2021/01/12 00:39:27;;;;;;;51.67;26.93;;;-3.10;99.90;;;;;;5033059;28;20440;-46
2021/01/12 00:41:57;;;;;;;49.07;24.73;;;-3.10;99.90;;;;;;5033281;28;20238;-45
2021/01/12 00:44:24;;;;;;;48.20;25.93;;;-3.10;99.90;;;;;;5035946;28;20258;-50
2021/01/12 00:46:50;;;;;;;51.43;27.17;;;-3.10;99.90;;;;;;5032769;28;20485;-48
2021/01/12 00:49:20;;;;;;;47.30;25.67;;;-3.10;99.90;;;;;;5036998;28;20492;-51
2021/01/12 00:51:46;;;;;;;53.33;28.27;;;-3.10;99.90;;;;;;5037897;28;20410;-46
2021/01/12 00:54:17;;;;;;;48.37;25.77;;;-3.10;99.90;;;;;;5035683;28;20790;-49
2021/01/12 00:56:43;;;;;;;53.67;27.07;;;-3.00;99.90;;;;;;5034057;28;20425;-47
2021/01/12 00:59:09;;;;;;;50.90;27.67;;;-3.00;99.90;;;;;;5038811;28;20515;-49
2021/01/12 01:01:37;;;;;;;50.20;26.50;;;-3.00;99.90;;;;;;5036010;28;20188;-48
2021/01/12 01:04:03;;;;;;;52.80;27.63;;;-3.10;99.90;;;;;;5036490;28;20207;-49
2021/01/12 01:06:28;;;;;;;53.63;28.40;;;-3.00;99.90;;;;;;5036733;28;20421;-46
2021/01/12 01:08:54;;;;;;;54.47;28.30;;;-3.00;99.90;;;;;;5035935;28;20435;-48
2021/01/12 01:11:20;;;;;;;48.97;27.33;;;-3.00;99.90;;;;;;5037530;28;20195;-46
2021/01/12 01:13:46;;;;;;;55.57;27.97;;;-3.00;99.90;;;;;;5037149;28;20180;-45
2021/01/12 01:16:12;;;;;;;53.70;28.43;;;-3.00;99.90;;;;;;5039660;28;20186;-46
2021/01/12 01:18:38;;;;;;;55.27;28.03;;;-3.00;99.90;;;;;;5018266;28;20513;-45
2021/01/12 01:21:04;;;;;;;54.37;27.87;;;-3.00;99.90;;;;;;5034339;28;20180;-54
2021/01/12 01:23:29;;;;;;;52.93;27.13;;;-3.00;99.90;;;;;;5035741;28;20454;-48
2021/01/12 01:25:55;;;;;;;55.80;29.83;;;-3.00;99.90;;;;;;5039550;28;20184;-45
2021/01/12 01:28:24;;;;;;;54.90;28.50;;;-3.10;99.90;;;;;;5037571;28;20188;-47
2021/01/12 01:30:54;;;;;;;56.03;29.80;;;-3.10;99.90;;;;;;5027532;28;20184;-45
2021/01/12 01:33:21;;;;;;;57.87;30.00;;;-3.00;99.90;;;;;;5019134;28;20915;-47
2021/01/12 01:35:49;;;;;;;57.33;27.57;;;-2.90;99.90;;;;;;5019419;28;20411;-47
2021/01/12 01:38:15;;;;;;;53.77;28.60;;;-2.90;99.90;;;;;;5015278;28;20518;-50
2021/01/12 01:40:41;;;;;;;51.97;27.53;;;-2.90;99.90;;;;;;5034895;28;20446;-46
2021/01/12 01:43:07;;;;;;;50.83;27.63;;;-2.90;99.90;;;;;;5035461;28;20614;-45
2021/01/12 01:45:33;;;;;;;60.23;29.73;;;-2.90;99.90;;;;;;5039525;28;20226;-45
2021/01/12 01:48:01;;;;;;;64.67;33.50;;;-2.90;99.90;;;;;;5036837;28;20434;-46
2021/01/12 01:50:27;;;;;;;67.23;32.17;;;-2.90;99.90;;;;;;5039301;28;20175;-49
2021/01/12 01:52:54;;;;;;;57.67;29.87;;;-2.90;99.90;;;;;;5038859;28;20406;-52
2021/01/12 01:55:21;;;;;;;62.57;29.77;;;-2.90;99.90;;;;;;5039279;28;20199;-49
2021/01/12 01:57:47;;;;;;;64.53;31.17;;;-2.90;99.90;;;;;;5036405;28;20413;-46
2021/01/12 02:00:17;;;;;;;64.73;32.50;;;-3.00;99.90;;;;;;5036258;28;20403;-54
2021/01/12 02:03:09;;;;;;;55.30;28.90;;;-3.00;99.90;;;;;;5036838;28;20453;-50
2021/01/12 02:05:39;;;;;;;55.23;27.73;;;-3.00;99.90;;;;;;5037636;28;20431;-46
2021/01/12 02:08:23;;;;;;;64.20;32.07;;;-2.90;99.90;;;;;;5035061;28;20430;-45
2021/01/12 02:10:50;;;;;;;63.63;31.60;;;-3.00;99.90;;;;;;5038074;28;20406;-53
2021/01/12 02:13:20;;;;;;;60.20;31.23;;;-3.00;99.90;;;;;;5035130;28;20541;-50
2021/01/12 02:15:46;;;;;;;58.47;30.33;;;-3.10;99.90;;;;;;5036680;28;20434;-48
2021/01/12 02:18:12;;;;;;;62.00;30.77;;;-3.20;99.90;;;;;;5037053;28;20435;-47
2021/01/12 02:20:41;;;;;;;62.73;31.77;;;-3.20;99.90;;;;;;5037713;28;20403;-50
2021/01/12 02:23:10;;;;;;;57.37;29.73;;;-3.30;99.90;;;;;;5037584;28;20223;-50
2021/01/12 02:25:37;;;;;;;57.63;30.43;;;-3.30;99.90;;;;;;5036631;28;20468;-49
2021/01/12 02:28:06;;;;;;;59.60;30.13;;;-3.30;99.90;;;;;;5037003;28;20451;-46
2021/01/12 02:30:32;;;;;;;61.80;32.27;;;-3.30;99.90;;;;;;5038522;28;20431;-53
2021/01/12 02:32:58;;;;;;;60.60;31.13;;;-3.30;99.90;;;;;;5035815;28;20418;-44
2021/01/12 02:35:25;;;;;;;58.00;30.57;;;-3.30;99.90;;;;;;5034497;28;20574;-46
2021/01/12 02:37:51;;;;;;;54.83;30.33;;;-3.30;99.90;;;;;;5036492;28;20524;-48
2021/01/12 02:40:16;;;;;;;57.03;30.23;;;-3.10;99.90;;;;;;5037306;28;20427;-49
2021/01/12 02:42:42;;;;;;;60.73;31.10;;;-3.10;99.90;;;;;;5036029;28;20631;-45
2021/01/12 02:45:09;;;;;;;58.17;28.17;;;-3.10;99.90;;;;;;5036397;28;20235;-46
2021/01/12 02:47:35;;;;;;;59.70;31.63;;;-3.10;99.90;;;;;;5036522;28;20419;-51
2021/01/12 02:50:03;;;;;;;62.53;31.70;;;-3.10;99.90;;;;;;5038982;28;20410;-49
2021/01/12 02:52:29;;;;;;;55.30;29.47;;;-3.00;99.90;;;;;;5019923;28;20418;-45
2021/01/12 02:54:54;;;;;;;54.00;28.03;;;-3.00;99.90;;;;;;5035941;28;20530;-48
2021/01/12 02:57:20;;;;;;;52.77;28.93;;;-3.00;99.90;;;;;;5019967;28;20168;-46
2021/01/12 02:59:45;;;;;;;53.10;28.17;;;-3.00;99.90;;;;;;5033929;28;20188;-45
2021/01/12 03:02:11;;;;;;;58.63;31.03;;;-3.00;99.90;;;;;;5034351;28;20184;-55
2021/01/12 03:04:36;;;;;;;50.40;27.40;;;-3.00;99.90;;;;;;5035532;28;20277;-55
2021/01/12 03:07:02;;;;;;;60.93;32.40;;;-2.90;99.90;;;;;;5035822;28;20188;-49
2021/01/12 03:09:27;;;;;;;55.73;30.63;;;-3.00;99.90;;;;;;5038210;28;20188;-45
2021/01/12 03:11:53;;;;;;;52.17;26.93;;;-3.00;99.90;;;;;;5020331;28;20195;-49
2021/01/12 03:14:19;;;;;;;55.67;29.20;;;-2.90;99.90;;;;;;5019667;28;20242;-49
2021/01/12 03:16:44;;;;;;;53.57;29.17;;;-2.80;99.90;;;;;;5035362;28;20184;-47
2021/01/12 03:19:10;;;;;;;55.47;28.73;;;-2.80;99.90;;;;;;5037160;28;20570;-47
2021/01/12 03:21:35;;;;;;;50.93;27.47;;;-2.80;99.90;;;;;;5036796;28;20172;-53
2021/01/12 03:24:01;;;;;;;53.40;27.63;;;-2.90;99.90;;;;;;5035824;28;20200;-49
2021/01/12 03:26:27;;;;;;;55.00;28.63;;;-2.90;99.90;;;;;;5037251;28;20214;-47
2021/01/12 03:28:52;;;;;;;52.80;28.73;;;-3.00;99.90;;;;;;5035863;28;20195;-47
2021/01/12 03:31:18;;;;;;;48.53;26.87;;;-3.00;99.90;;;;;;5035555;28;20182;-45
2021/01/12 03:33:44;;;;;;;49.27;26.53;;;-2.90;99.90;;;;;;5034080;28;20206;-45
2021/01/12 03:36:09;;;;;;;50.90;27.30;;;-3.00;99.90;;;;;;5036462;28;20229;-49
2021/01/12 03:38:35;;;;;;;51.10;27.93;;;-3.00;99.90;;;;;;5034863;28;20200;-50
2021/01/12 03:41:00;;;;;;;53.47;29.20;;;-3.00;99.90;;;;;;5035368;28;20492;-45
2021/01/12 03:43:26;;;;;;;48.37;26.73;;;-2.90;99.90;;;;;;5037690;28;20286;-51
2021/01/12 03:45:51;;;;;;;50.03;27.33;;;-2.80;99.90;;;;;;5036440;28;20187;-49
2021/01/12 03:48:17;;;;;;;47.73;27.27;;;-2.80;99.90;;;;;;5037772;28;20216;-49
2021/01/12 03:50:43;;;;;;;59.03;30.20;;;-2.80;99.90;;;;;;5033795;28;20202;-47
2021/01/12 03:53:08;;;;;;;50.10;28.17;;;-2.80;99.90;;;;;;5036597;28;20222;-51
2021/01/12 03:55:34;;;;;;;59.63;30.40;;;-2.90;99.90;;;;;;5033804;28;20516;-46
2021/01/12 03:57:59;;;;;;;48.70;28.37;;;-2.90;99.90;;;;;;5037080;28;20191;-47
2021/01/12 04:00:25;;;;;;;55.73;29.60;;;-3.00;99.90;;;;;;5033427;28;20211;-48
2021/01/12 04:02:50;;;;;;;57.17;28.33;;;-2.90;99.90;;;;;;5038595;28;20215;-49
2021/01/12 04:05:18;;;;;;;51.27;27.93;;;-2.80;99.90;;;;;;5037113;28;20172;-46
2021/01/12 04:07:44;;;;;;;63.47;31.60;;;-2.70;99.90;;;;;;5036593;28;20200;-53
2021/01/12 04:10:11;;;;;;;64.03;32.10;;;-2.80;99.90;;;;;;5018156;28;20464;-50
2021/01/12 04:12:36;;;;;;;58.07;29.53;;;-2.70;99.90;;;;;;5031799;28;20182;-48
2021/01/12 04:15:03;;;;;;;58.13;31.10;;;-2.60;99.90;;;;;;5033097;28;20414;-49
2021/01/12 04:17:29;;;;;;;59.13;30.27;;;-2.50;99.90;;;;;;5035588;28;20295;-48
2021/01/12 04:19:54;;;;;;;59.20;32.40;;;-2.40;99.90;;;;;;5036744;28;20461;-46
2021/01/12 04:22:20;;;;;;;57.10;30.67;;;-2.50;99.90;;;;;;5038593;28;20207;-46
2021/01/12 04:24:45;;;;;;;56.80;28.57;;;-2.50;99.90;;;;;;5040008;28;20742;-46
2021/01/12 04:27:11;;;;;;;51.83;27.93;;;-2.60;99.90;;;;;;5041058;28;20176;-56
2021/01/12 04:29:36;;;;;;;49.83;26.53;;;-2.60;99.90;;;;;;5039039;28;20204;-45
2021/01/12 04:32:02;;;;;;;53.43;28.17;;;-2.50;99.90;;;;;;5038574;28;20188;-46
2021/01/12 04:34:28;;;;;;;58.23;29.90;;;-2.40;99.90;;;;;;5038855;28;20202;-46
2021/01/12 04:36:53;;;;;;;54.53;28.90;;;-2.40;99.90;;;;;;5040017;28;20188;-48
2021/01/12 04:39:19;;;;;;;51.30;27.97;;;-2.40;99.90;;;;;;5038308;28;20200;-46
2021/01/12 04:41:44;;;;;;;54.20;29.00;;;-2.50;99.90;;;;;;5039947;28;20528;-44
2021/01/12 04:44:10;;;;;;;51.27;27.80;;;-2.50;99.90;;;;;;5038561;28;20210;-46
2021/01/12 04:46:35;;;;;;;55.33;27.83;;;-2.40;99.90;;;;;;5033379;28;20196;-50
2021/01/12 04:49:01;;;;;;;50.83;28.83;;;-2.30;99.90;;;;;;5037643;28;20191;-46
2021/01/12 04:51:28;;;;;;;53.57;28.77;;;-2.20;99.90;;;;;;5033647;28;20184;-46
2021/01/12 04:53:53;;;;;;;51.13;27.97;;;-2.40;99.90;;;;;;5041689;28;20211;-46
2021/01/12 04:56:21;;;;;;;53.70;28.60;;;-2.50;99.90;;;;;;5035829;28;20819;-45
2021/01/12 04:58:48;;;;;;;55.50;30.80;;;-2.50;99.90;;;;;;5036535;28;20203;-47
2021/01/12 05:01:17;;;;;;;50.00;28.10;;;-2.60;99.90;;;;;;5037476;28;20501;-49
2021/01/12 05:03:53;;;;;;;54.17;28.17;;;-2.60;99.90;;;;;;5036132;28;20469;-47
2021/01/12 05:06:23;;;;;;;54.37;29.20;;;-2.60;99.90;;;;;;5035821;28;20417;-46
2021/01/12 05:08:57;;;;;;;56.00;29.47;;;-2.60;99.90;;;;;;5034808;28;20480;-46
2021/01/12 05:11:29;;;;;;;54.43;29.80;;;-2.60;99.90;;;;;;5037623;28;20427;-46
2021/01/12 05:13:56;;;;;;;60.03;30.90;;;-2.50;99.90;;;;;;5034501;28;20427;-51
2021/01/12 05:16:24;;;;;;;61.47;33.13;;;-2.50;99.90;;;;;;5035379;28;20910;-46
2021/01/12 05:18:50;;;;;;;57.27;29.87;;;-2.50;99.90;;;;;;5034945;28;20949;-46
2021/01/12 05:21:18;;;;;;;62.73;31.73;;;-2.70;99.90;;;;;;5035546;28;20418;-46
2021/01/12 05:24:01;;;;;;;57.30;31.43;;;-2.80;99.90;;;;;;5016596;28;20568;-48
2021/01/12 05:26:32;;;;;;;53.83;28.73;;;-2.80;99.90;;;;;;5033033;28;20829;-46
2021/01/12 05:28:59;;;;;;;53.97;30.17;;;-2.90;99.90;;;;;;5035720;28;20434;-46
2021/01/12 05:31:27;;;;;;;57.07;29.27;;;-2.90;99.90;;;;;;5035262;28;20771;-49
2021/01/12 05:33:54;;;;;;;56.07;31.23;;;-2.80;99.90;;;;;;5037459;28;20418;-48
2021/01/12 05:36:20;;;;;;;64.97;33.67;;;-3.00;99.90;;;;;;5035953;28;20427;-48
2021/01/12 05:38:49;;;;;;;66.30;36.80;;;-3.20;99.90;;;;;;5036417;28;20825;-48
2021/01/12 05:41:14;;;;;;;59.97;30.77;;;-3.20;99.90;;;;;;5033566;28;20898;-46
2021/01/12 05:43:45;;;;;;;57.97;30.83;;;-3.30;99.90;;;;;;5037714;28;20488;-51
2021/01/12 05:46:14;;;;;;;51.30;28.00;;;-3.30;99.90;;;;;;5015951;28;20650;-46
2021/01/12 05:48:45;;;;;;;59.53;30.20;;;-3.10;99.90;;;;;;5015220;28;20439;-48
2021/01/12 05:51:15;;;;;;;55.03;30.93;;;-2.90;99.90;;;;;;5018303;28;20430;-55
2021/01/12 05:53:46;;;;;;;55.43;31.20;;;-2.70;99.90;;;;;;5036103;28;20790;-56
2021/01/12 05:56:20;;;;;;;50.27;29.60;;;-2.50;99.90;;;;;;5039532;28;20428;-49
2021/01/12 05:58:55;;;;;;;57.50;31.73;;;-2.30;99.90;;;;;;5037128;28;20466;-46
2021/01/12 06:01:24;;;;;;;54.23;29.30;;;-2.20;99.90;;;;;;5035204;28;20939;-46
2021/01/12 06:03:51;;;;;;;51.20;29.97;;;-2.30;99.90;;;;;;5035095;28;20458;-49
2021/01/12 06:06:18;;;;;;;54.20;30.23;;;-2.50;99.90;;;;;;5037332;28;20758;-47
2021/01/12 06:08:48;;;;;;;55.27;29.60;;;-2.70;99.90;;;;;;5037899;28;20433;-56
2021/01/12 06:11:15;;;;;;;56.30;30.00;;;-2.80;99.90;;;;;;5036237;28;20886;-48
2021/01/12 06:13:54;;;;;;;56.33;30.33;;;-3.00;99.90;;;;;;5018501;28;20429;-48
2021/01/12 06:16:23;;;;;;;54.20;30.57;;;-3.10;99.90;;;;;;5034981;28;20589;-47
2021/01/12 06:19:17;;;;;;;50.87;27.70;;;-2.90;99.90;;;;;;5037851;28;20500;-48
2021/01/12 06:21:55;;;;;;;50.20;28.00;;;-2.70;99.90;;;;;;5030345;28;20521;-48
2021/01/12 06:24:35;;;;;;;67.20;35.53;;;-2.50;99.90;;;;;;5035496;28;20985;-51
2021/01/12 06:27:05;;;;;;;110.90;70.63;;;-2.50;99.90;;;;;;5033391;28;21049;-52
2021/01/12 06:29:31;;;;;;;51.20;30.10;;;-2.50;99.90;;;;;;5036839;28;20462;-47
2021/01/12 06:31:57;;;;;;;52.70;29.07;;;-2.60;99.90;;;;;;5035727;28;20426;-48
2021/01/12 06:34:24;;;;;;;52.50;28.40;;;-2.50;99.90;;;;;;5036175;28;20184;-51
2021/01/12 06:36:53;;;;;;;50.23;27.73;;;-2.40;99.90;;;;;;5035765;28;20437;-50
2021/01/12 06:39:48;;;;;;;60.47;32.23;;;-2.40;99.90;;;;;;5033747;28;20519;-49
2021/01/12 06:42:16;;;;;;;47.83;27.47;;;-2.50;99.90;;;;;;5025781;28;20469;-50
2021/01/12 06:44:42;;;;;;;47.53;27.10;;;-2.40;99.90;;;;;;5034946;28;20525;-48
2021/01/12 06:47:10;;;;;;;43.73;26.10;;;-2.50;99.90;;;;;;5018937;28;20427;-46
2021/01/12 06:49:36;;;;;;;47.57;25.90;;;-2.50;99.90;;;;;;5014822;28;20447;-49
2021/01/12 06:52:10;;;;;;;48.57;27.63;;;-2.40;99.90;;;;;;5032665;28;20425;-46
2021/01/12 06:54:46;;;;;;;49.50;27.10;;;-2.60;99.90;;;;;;5027216;28;20442;-46
2021/01/12 06:57:21;;;;;;;46.87;27.30;;;-2.70;99.90;;;;;;5035647;28;20440;-49
2021/01/12 06:59:55;;;;;;;46.97;26.60;;;-2.70;99.90;;;;;;5018606;28;20454;-45
2021/01/12 07:02:28;;;;;;;50.30;28.03;;;-2.70;99.90;;;;;;5032372;28;20464;-46
2021/01/12 07:05:00;;;;;;;49.13;27.37;;;-2.70;99.90;;;;;;5031502;28;20554;-46
2021/01/12 07:07:30;;;;;;;48.30;28.57;;;-2.60;99.90;;;;;;5030669;28;20417;-45
2021/01/12 07:09:57;;;;;;;51.53;29.77;;;-2.70;99.90;;;;;;5026368;28;20971;-45
2021/01/12 07:12:24;;;;;;;45.67;27.03;;;-2.90;99.90;;;;;;5033705;28;20438;-45
2021/01/12 07:15:11;;;;;;;46.43;26.70;;;-2.90;99.90;;;;;;5031896;28;20438;-46
2021/01/12 07:17:51;;;;;;;49.37;27.90;;;-2.90;99.90;;;;;;5029144;28;20838;-45
2021/01/12 07:20:23;;;;;;;46.73;28.27;;;-2.90;99.90;;;;;;5012491;28;20790;-45
2021/01/12 07:22:56;;;;;;;47.60;27.87;;;-2.90;99.90;;;;;;5029884;28;20458;-45
2021/01/12 07:25:30;;;;;;;50.97;28.60;;;-2.80;99.90;;;;;;5019663;28;20787;-47
2021/01/12 07:28:17;;;;;;;43.80;26.73;;;-2.60;99.90;;;;;;5026896;28;20504;-46
2021/01/12 07:30:44;;;;;;;43.03;25.43;;;-2.50;99.90;;;;;;5031196;28;20445;-47
2021/01/12 07:33:15;;;;;;;43.20;25.63;;;-2.40;99.90;;;;;;5034823;28;20418;-49
2021/01/12 07:35:41;;;;;;;43.77;25.27;;;-2.20;99.90;;;;;;5034217;28;20457;-47
2021/01/12 07:38:07;;;;;;;44.33;26.10;;;-2.10;99.90;;;;;;5035428;28;20446;-46
2021/01/12 07:40:33;;;;;;;42.90;25.53;;;-1.90;99.90;;;;;;5017644;28;20188;-49
2021/01/12 07:43:01;;;;;;;41.50;25.67;;;-1.80;99.90;;;;;;5035594;28;20219;-47
2021/01/12 07:45:31;;;;;;;41.23;25.27;;;-1.80;99.90;;;;;;5036008;28;20422;-45
2021/01/12 07:47:57;;;;;;;41.60;24.27;;;-1.70;99.90;;;;;;5033587;28;20557;-49
2021/01/12 07:50:25;;;;;;;38.90;23.70;;;-1.60;99.90;;;;;;5036602;28;20477;-45
2021/01/12 07:52:51;;;;;;;45.77;28.13;;;-1.60;99.90;;;;;;5034385;28;20411;-46
2021/01/12 07:55:17;;;;;;;44.23;27.00;;;-1.60;99.90;;;;;;5034880;28;20497;-46
2021/01/12 07:57:44;;;;;;;45.30;28.17;;;-1.60;99.90;;;;;;5038820;28;20464;-46
2021/01/12 08:00:12;;;;;;;43.03;28.63;;;-1.70;99.90;;;;;;5038823;28;20198;-46
2021/01/12 08:02:42;;;;;;;42.03;26.63;;;-1.70;99.90;;;;;;5040303;28;20990;-46
2021/01/12 08:05:10;;;;;;;40.07;25.07;;;-1.80;99.90;;;;;;5040578;28;20496;-46
2021/01/12 08:07:36;;;;;;;40.13;24.60;;;-1.90;99.90;;;;;;5038786;28;20409;-51
2021/01/12 08:10:04;;;;;;;35.30;22.63;;;-1.90;99.90;;;;;;5037418;28;20398;-47
2021/01/12 08:12:29;;;;;;;39.83;23.57;;;-1.90;99.90;;;;;;5040735;28;20178;-50
2021/01/12 08:15:06;;;;;;;38.20;22.80;;;-1.70;99.90;;;;;;5040669;28;20415;-48
2021/01/12 08:17:33;;;;;;;37.57;22.93;;;-1.90;99.90;;;;;;5040048;28;20179;-46
2021/01/12 08:20:04;;;;;;;38.23;23.90;;;-1.90;99.90;;;;;;5038370;28;20411;-46
2021/01/12 08:22:29;;;;;;;40.13;23.40;;;-1.80;99.90;;;;;;5038722;28;20452;-49
2021/01/12 08:25:06;;;;;;;35.60;22.37;;;-1.60;99.90;;;;;;5037556;28;20978;-49
2021/01/12 08:27:32;;;;;;;38.73;23.00;;;-1.50;99.90;;;;;;5039504;28;20179;-45
2021/01/12 08:30:08;;;;;;;36.67;23.70;;;-1.50;99.90;;;;;;5038274;28;20501;-47
2021/01/12 08:32:37;;;;;;;33.60;22.80;;;-1.40;99.90;;;;;;5037281;28;20406;-46
2021/01/12 08:35:07;;;;;;;32.47;20.63;;;-1.20;99.90;;;;;;5038849;28;20515;-47
2021/01/12 08:37:40;;;;;;;36.27;23.17;;;-1.20;99.90;;;;;;5036079;28;20445;-47
2021/01/12 08:40:08;;;;;;;31.67;20.80;;;-1.00;99.90;;;;;;5040196;28;20415;-51
2021/01/12 08:42:38;;;;;;;34.03;21.77;;;-0.90;99.90;;;;;;5037661;28;20438;-46
2021/01/12 08:45:14;;;;;;;31.80;20.53;;;-0.80;99.90;;;;;;5037619;28;20957;-46
2021/01/12 08:47:39;;;;;;;31.90;20.43;;;-0.60;99.90;;;;;;5019789;28;20480;-46
2021/01/12 08:50:07;;;;;;;32.33;21.07;;;-0.50;99.90;;;;;;5037635;28;20402;-49
2021/01/12 08:52:34;;;;;;;31.50;20.83;;;-0.50;99.90;;;;;;5019859;28;20183;-50
2021/01/12 08:55:00;;;;;;;29.70;20.20;;;-0.40;99.90;;;;;;5036374;28;20434;-56
2021/01/12 08:57:26;;;;;;;32.40;21.37;;;-0.40;99.90;;;;;;5036728;28;20411;-47
2021/01/12 08:59:52;;;;;;;33.87;20.87;;;-0.30;99.90;;;;;;5016963;28;20469;-46
2021/01/12 09:02:19;;;;;;;32.07;20.43;;;-0.40;99.90;;;;;;5038311;28;20180;-49
2021/01/12 09:04:45;;;;;;;34.73;21.17;;;-0.40;99.90;;;;;;5037221;28;20282;-49
2021/01/12 09:07:11;;;;;;;34.67;22.90;;;-0.50;99.90;;;;;;5037728;28;20426;-46
2021/01/12 09:09:36;;;;;;;32.97;22.67;;;-0.40;99.90;;;;;;5033893;28;20450;-46
2021/01/12 09:12:03;;;;;;;33.23;21.90;;;-0.50;99.90;;;;;;5036585;28;20294;-45
2021/01/12 09:14:32;;;;;;;38.73;25.90;;;-0.60;99.90;;;;;;5036433;28;20464;-48
2021/01/12 09:17:02;;;;;;;35.73;23.43;;;-0.80;99.90;;;;;;5035790;28;20449;-45
2021/01/12 09:19:34;;;;;;;34.77;24.47;;;-0.80;99.90;;;;;;5035270;28;20470;-49
2021/01/12 09:22:15;;;;;;;32.13;23.60;;;-0.80;99.90;;;;;;5036362;28;20525;-51
2021/01/12 09:24:49;;;;;;;30.83;20.90;;;-0.80;99.90;;;;;;5036564;28;20921;-46
2021/01/12 09:27:18;;;;;;;32.03;22.27;;;-0.80;99.90;;;;;;5036177;28;20465;-51
2021/01/12 09:29:44;;;;;;;31.80;19.83;;;-0.80;99.90;;;;;;5034707;28;20811;-50
2021/01/12 09:32:11;;;;;;;29.93;20.00;;;-0.90;99.90;;;;;;5035864;28;20421;-48
2021/01/12 09:34:43;;;;;;;28.87;18.37;;;-0.90;99.90;;;;;;5037760;28;20194;-49
2021/01/12 09:37:17;;;;;;;26.97;18.47;;;-0.80;99.90;;;;;;5037447;28;20895;-46
2021/01/12 09:39:44;;;;;;;26.70;19.23;;;-0.80;99.90;;;;;;5033597;28;20542;-48
2021/01/12 09:42:10;;;;;;;27.37;18.40;;;-0.90;99.90;;;;;;5036673;28;20426;-46
2021/01/12 09:44:35;;;;;;;29.67;20.27;;;-0.80;99.90;;;;;;5036472;28;20482;-46
2021/01/12 09:47:02;;;;;;;25.20;17.90;;;-0.80;99.90;;;;;;5036709;28;20651;-50
2021/01/12 09:49:27;;;;;;;29.93;19.33;;;-0.60;99.90;;;;;;5034238;28;20287;-47
2021/01/12 09:51:53;;;;;;;26.70;17.50;;;-0.50;99.90;;;;;;5034818;28;20458;-46
2021/01/12 09:54:18;;;;;;;29.43;20.47;;;-0.30;99.90;;;;;;5035182;28;20187;-46
2021/01/12 09:56:44;;;;;;;27.57;19.33;;;-0.30;99.90;;;;;;5035292;28;20194;-48
2021/01/12 09:59:09;;;;;;;28.33;19.20;;;-0.30;99.90;;;;;;5034974;28;20238;-46
2021/01/12 10:01:35;;;;;;;26.73;17.80;;;-0.20;99.90;;;;;;5034277;28;20211;-50
2021/01/12 10:04:00;;;;;;;27.63;18.00;;;-0.20;99.90;;;;;;5035659;28;20294;-49
2021/01/12 10:06:29;;;;;;;29.93;19.20;;;-0.10;99.90;;;;;;5034695;28;20234;-51
2021/01/12 10:08:55;;;;;;;27.20;18.47;;;-0.30;99.90;;;;;;5036034;28;20200;-47
2021/01/12 10:11:23;;;;;;;31.23;20.50;;;-0.30;99.90;;;;;;5033729;28;20437;-48
2021/01/12 10:13:49;;;;;;;35.23;24.80;;;-0.30;99.90;;;;;;5033971;28;20191;-45
2021/01/12 10:16:24;;;;;;;36.63;25.30;;;-0.20;99.90;;;;;;5037597;28;20481;-45
2021/01/12 10:18:50;;;;;;;31.60;21.10;;;-0.10;99.90;;;;;;5034244;28;20290;-50
2021/01/12 10:21:17;;;;;;;30.27;20.47;;;-0.10;99.90;;;;;;5032694;28;20514;-49
2021/01/12 10:23:43;;;;;;;33.47;22.20;;;0.00;99.90;;;;;;5042240;28;20210;-49
2021/01/12 10:26:16;;;;;;;31.37;22.77;;;0.00;99.90;;;;;;5037221;28;20465;-50
2021/01/12 10:28:44;;;;;;;34.23;23.17;;;0.00;99.90;;;;;;5033733;28;20434;-46
2021/01/12 10:31:10;;;;;;;36.90;24.03;;;-0.10;99.90;;;;;;5022263;28;20438;-49
2021/01/12 10:33:37;;;;;;;32.07;21.83;;;-0.20;99.90;;;;;;5036818;28;21011;-50
2021/01/12 10:36:03;;;;;;;32.57;20.57;;;-0.10;99.90;;;;;;5029914;28;20555;-46
2021/01/12 10:38:29;;;;;;;43.10;29.60;;;0.00;99.90;;;;;;5036135;28;20454;-47
2021/01/12 10:40:54;;;;;;;37.87;25.97;;;0.10;99.90;;;;;;5034146;28;20438;-49
2021/01/12 10:43:20;;;;;;;39.90;26.80;;;0.10;99.90;;;;;;5035230;28;20473;-53
2021/01/12 10:45:46;;;;;;;37.77;26.57;;;0.10;99.90;;;;;;5033623;28;20179;-46
2021/01/12 10:48:11;;;;;;;34.70;24.73;;;0.10;99.90;;;;;;5031640;28;20203;-47
2021/01/12 10:50:37;;;;;;;35.83;25.17;;;-0.10;99.90;;;;;;5024443;28;20202;-54
2021/01/12 10:53:03;;;;;;;31.17;21.37;;;-0.10;99.90;;;;;;5033469;28;20970;-52
2021/01/12 10:55:28;;;;;;;31.70;21.13;;;-0.10;99.90;;;;;;5034015;28;20191;-48
2021/01/12 10:57:54;;;;;;;36.03;25.10;;;0.00;99.90;;;;;;5035281;28;20195;-50
2021/01/12 11:00:20;;;;;;;31.60;20.77;;;0.00;99.90;;;;;;5032697;28;20172;-49
2021/01/12 11:02:46;;;;;;;30.27;19.90;;;-0.10;99.90;;;;;;5015173;28;20635;-46
2021/01/12 11:05:12;;;;;;;27.23;18.10;;;-0.20;99.90;;;;;;5030982;28;20429;-45
2021/01/12 11:07:41;;;;;;;36.93;25.27;;;-0.10;99.90;;;;;;5032586;28;20233;-48
2021/01/12 11:10:08;;;;;;;32.33;21.70;;;-0.10;99.90;;;;;;5032860;28;20294;-55
2021/01/12 11:12:33;;;;;;;33.20;21.23;;;0.00;99.90;;;;;;5031938;28;20434;-45
2021/01/12 11:14:59;;;;;;;29.87;20.10;;;-0.20;99.90;;;;;;5030346;28;20432;-53
2021/01/12 11:17:25;;;;;;;28.73;19.83;;;-0.20;99.90;;;;;;5036585;28;20175;-47
2021/01/12 11:19:51;;;;;;;29.67;19.33;;;-0.10;99.90;;;;;;5033743;28;20219;-45
2021/01/12 11:22:26;;;;;;;28.27;19.77;;;-0.20;99.90;;;;;;5024662;28;20204;-53
2021/01/12 11:24:52;;;;;;;30.83;20.57;;;-0.20;99.90;;;;;;5038343;28;20701;-54
2021/01/12 11:27:18;;;;;;;30.13;21.07;;;-0.10;99.90;;;;;;5032130;28;20418;-49
2021/01/12 11:29:43;;;;;;;41.23;24.67;;;0.00;99.90;;;;;;5031226;28;20529;-50
2021/01/12 11:32:09;;;;;;;33.37;22.00;;;0.00;99.90;;;;;;5031626;28;20184;-46
2021/01/12 11:34:34;;;;;;;31.47;20.77;;;0.10;99.90;;;;;;5030144;28;20738;-49
2021/01/12 11:37:00;;;;;;;29.90;18.53;;;0.30;99.90;;;;;;5034327;28;20175;-46
2021/01/12 11:39:26;;;;;;;31.57;19.87;;;0.40;99.90;;;;;;5022553;28;20198;-50
2021/01/12 11:41:54;;;;;;;32.37;22.00;;;0.60;99.90;;;;;;5031469;28;20172;-48
2021/01/12 11:44:22;;;;;;;33.50;20.77;;;0.70;99.90;;;;;;5028294;28;20222;-52
2021/01/12 11:46:48;;;;;;;24.73;17.53;;;0.80;99.90;;;;;;5034708;28;20513;-47
2021/01/12 11:49:14;;;;;;;24.57;17.93;;;0.90;99.90;;;;;;5023440;28;20468;-49
2021/01/12 11:51:41;;;;;;;28.17;20.03;;;1.00;99.90;;;;;;5035111;28;20533;-48
2021/01/12 11:54:08;;;;;;;27.27;18.53;;;1.00;99.90;;;;;;5030750;28;20183;-49
2021/01/12 11:56:34;;;;;;;23.87;16.47;;;1.00;99.90;;;;;;5032816;28;20439;-54
2021/01/12 11:59:00;;;;;;;26.37;17.60;;;1.00;99.90;;;;;;5033001;28;20454;-49
2021/01/12 12:01:26;;;;;;;24.77;16.80;;;1.10;99.90;;;;;;5034335;28;20506;-47
2021/01/12 12:03:51;;;;;;;25.17;17.47;;;1.10;99.90;;;;;;5036172;28;20211;-47
2021/01/12 12:06:17;;;;;;;25.47;17.57;;;1.10;99.90;;;;;;5035689;28;20724;-49
2021/01/12 12:08:43;;;;;;;25.67;17.53;;;1.10;99.90;;;;;;5035464;28;20631;-46
2021/01/12 12:11:09;;;;;;;23.40;16.93;;;1.00;99.90;;;;;;5032779;28;20164;-44
2021/01/12 12:13:41;;;;;;;24.30;16.53;;;0.90;99.90;;;;;;5031034;28;20206;-49
2021/01/12 12:16:12;;;;;;;25.37;17.27;;;1.00;99.90;;;;;;5028582;28;20188;-46
2021/01/12 12:18:39;;;;;;;24.50;16.50;;;1.00;99.90;;;;;;5030879;28;20442;-47
2021/01/12 12:21:05;;;;;;;23.00;15.30;;;0.90;99.90;;;;;;5031012;28;20410;-48
2021/01/12 12:23:30;;;;;;;21.83;15.17;;;0.90;99.90;;;;;;5030848;28;20814;-47
2021/01/12 12:25:56;;;;;;;21.33;15.40;;;0.90;99.90;;;;;;5030237;28;20230;-46
2021/01/12 12:28:21;;;;;;;23.47;15.57;;;0.90;99.90;;;;;;5032455;28;20196;-48
2021/01/12 12:30:47;;;;;;;22.43;15.50;;;1.00;99.90;;;;;;5032639;28;20172;-53